Wednesday, January 17, 2018, 7:19 PM EST
Back to Local

KHIE, Mt Washington Regional Airport

Location: Jefferson, NH, United States Lat: 44.367
Local Time: 7:19 PM EST ( 0:19 GMT) Lon: -71.55
Time Zone: US/Eastern Elev: 1072 ft

Show me the last for .
Show Decoded

2018-01-17 18:52 METAR KHIE 172352Z AUTO 00000KT 3SM -SN BR OVC038 M04/M04 A3004 RMK AO2 SLP192
                 P0000 60000 T10391044 11017 21039 58014 =
2018-01-17 18:43 METAR KHIE 172343Z AUTO 00000KT 3SM -SN BR OVC038 M04/M04 A3005 RMK AO2 P0000
                 T10391044 =
2018-01-17 17:52 METAR KHIE 172252Z AUTO 00000KT 2 1/2SM -SN BR OVC031 M03/M04 A3006 RMK AO2
                 SLP197 P0000 T10331039 =
2018-01-17 17:17 METAR KHIE 172217Z AUTO 00000KT 2 1/2SM -SN BR OVC029 M03/M04 A3007 RMK AO2
                 P0000 T10281039 =
2018-01-17 17:02 METAR KHIE 172202Z AUTO 00000KT 3SM -SN BR FEW028 OVC033 M03/M04 A3007 RMK AO2
                 P0000 T10281039 =
2018-01-17 16:52 METAR KHIE 172152Z AUTO 00000KT 2SM -SN BR SCT028 OVC035 M03/M04 A3008 RMK AO2
                 SLP203 P0000 T10281039 =
2018-01-17 15:58 METAR KHIE 172058Z AUTO 00000KT 2SM -SN BR OVC031 M02/M04 A3009 RMK AO2 P0000
                 T10221039 =
2018-01-17 15:52 METAR KHIE 172052Z AUTO 00000KT 1 3/4SM -SN BR OVC027 M02/M04 A3009 RMK AO2
                 SLP206 P0000 60000 T10221039 56021 =
2018-01-17 15:19 METAR KHIE 172019Z AUTO 00000KT 1 3/4SM -SN BR SCT008 BKN028 OVC038 M02/M04
                 A3010 RMK AO2 P0000 T10221044 =
2018-01-17 15:13 METAR KHIE 172013Z AUTO 00000KT 2SM -SN BR SCT008 BKN030 OVC038 M02/M04 A3010
                 RMK AO2 P0000 T10221044 =
2018-01-17 14:52 METAR KHIE 171952Z AUTO 00000KT 2SM -SN BR BKN008 OVC034 M02/M04 A3010 RMK AO2
                 SLP212 P0000 T10221039 =
2018-01-17 14:25 METAR KHIE 171925Z AUTO 04003KT 2SM -SN BR OVC009 M02/M04 A3011 RMK AO2 P0000
                 T10221039 =
2018-01-17 14:11 METAR KHIE 171911Z AUTO 01003KT 1 1/2SM -SN BR OVC009 M02/M04 A3012 RMK AO2
                 P0000 T10221044 =
2018-01-17 13:52 METAR KHIE 171852Z AUTO 36004KT 2SM -SN BR OVC009 M02/M04 A3013 RMK AO2 SNB1756
                 SLP219 P0000 T10171039 =
2018-01-17 13:37 METAR KHIE 171837Z AUTO 00000KT 2 1/2SM -SN BR BKN009 OVC042 M02/M04 A3013 RMK
                 AO2 SNB1756 P0000 T10221039 =
2018-01-17 13:24 METAR KHIE 171824Z AUTO 00000KT 3SM -SN BR FEW008 BKN042 OVC049 M02/M04 A3014
                 RMK AO2 SNB1756 P0000 T10221044 =
2018-01-17 12:52 METAR KHIE 171752Z AUTO 00000KT 10SM OVC060 M03/M05 A3015 RMK AO2 SNE12 SLP228
                 P0000 60000 T10281050 11028 21072 56029 =
2018-01-17 11:52 METAR KHIE 171652Z AUTO 00000KT 3SM -SN BR BKN037 OVC047 M03/M05 A3019 RMK AO2
                 SNB25 PRESFR SLP241 P0000 T10331050 =
2018-01-17 10:52 METAR KHIE 171552Z AUTO 00000KT 7SM OVC050 M04/M06 A3024 RMK AO2 SNE1454 SLP260
                 P0000 T10441061 =
2018-01-17 09:52 METAR KHIE 171452Z AUTO 00000KT 6SM -SN BR OVC060 M06/M07 A3026 RMK AO2 SNE12B41
                 SLP266 P0000 60000 T10561067 56010 =
2018-01-17 08:52 METAR KHIE 171352Z AUTO 00000KT 4SM -SN BR OVC060 M06/M07 A3026 RMK AO2 SNE13B36
                 SLP268 P0000 T10611072 =
2018-01-17 07:52 METAR KHIE 171252Z AUTO 00000KT 3SM -SN BR OVC060 M07/M08 A3027 RMK AO2 SLP272
                 P0000 T10671078 =
2018-01-17 06:52 METAR KHIE 171152Z AUTO 00000KT 3SM -SN BR OVC040 M07/M07 A3029 RMK AO2 SLP278
                 P0000 60004 70006 T10671072 11061 21067 58004 =
2018-01-17 06:39 METAR KHIE 171139Z AUTO 00000KT 3SM -SN BR OVC038 M07/M08 A3029 RMK AO2 P0000
                 T10671078 =
2018-01-17 06:12 METAR KHIE 171112Z AUTO 00000KT 2 1/2SM -SN BR OVC033 M07/M07 A3029 RMK AO2
                 P0000 T10671072 =
2018-01-17 05:52 METAR KHIE 171052Z AUTO 00000KT 3SM -SN BR OVC031 M06/M07 A3029 RMK AO2 SLP278
                 P0001 T10611072 =
2018-01-17 05:50 METAR KHIE 171050Z AUTO 00000KT 3SM -SN BR OVC031 M06/M07 A3030 RMK AO2 P0001 =
2018-01-17 05:23 METAR KHIE 171023Z AUTO 00000KT 2SM -SN BR OVC023 M06/M07 A3030 RMK AO2 P0001
                 T10611072 =
2018-01-17 04:59 METAR KHIE 170959Z AUTO 00000KT 1 3/4SM -SN BR OVC025 M06/M08 A3030 RMK AO2
                 P0000 T10611078 =
2018-01-17 04:52 METAR KHIE 170952Z AUTO 00000KT 2SM -SN BR OVC027 M06/M08 A3030 RMK AO2 SLP280
                 P0001 T10611078 =
2018-01-17 04:34 METAR KHIE 170934Z AUTO 00000KT 2SM -SN BR OVC028 M06/M07 A3030 RMK AO2 P0001
                 T10611072 =
2018-01-17 03:52 METAR KHIE 170852Z AUTO 00000KT 1 3/4SM -SN BR OVC029 M07/M08 A3030 RMK AO2
                 SLP281 P0001 60002 T10671078 56008 =
2018-01-17 03:39 METAR KHIE 170839Z AUTO 00000KT 1 3/4SM -SN BR OVC031 M07/M07 A3031 RMK AO2
                 P0001 T10671072 =
2018-01-17 02:52 METAR KHIE 170752Z AUTO 00000KT 1 3/4SM -SN BR OVC025 M07/M08 A3031 RMK AO2
                 SLP284 P0000 T10671078 =
2018-01-17 01:52 METAR KHIE 170652Z AUTO 00000KT 1 3/4SM -SN BR OVC024 M07/M08 A3031 RMK AO2
                 SLP286 P0001 T10671078 =
2018-01-17 00:52 METAR KHIE 170552Z AUTO 00000KT 1 1/2SM -SN BR OVC019 M07/M08 A3033 RMK AO2
                 SLP290 P0002 60002 T10671078 11067 21078 58008 =
2018-01-17 00:01 METAR KHIE 170501Z AUTO 00000KT 1 3/4SM -SN BR OVC025 M07/M08 A3034 RMK AO2
                 P0000 T10671078 =
2018-01-16 23:52 METAR KHIE 170452Z AUTO 00000KT 2SM -SN BR OVC029 M07/M08 A3034 RMK AO2 SLP294
                 P0000 T10671078 410561189 =
2018-01-16 23:22 METAR KHIE 170422Z AUTO 00000KT 3SM -SN BR OVC037 M07/M08 A3034 RMK AO2 P0000
                 T10671083 =
2018-01-16 22:52 METAR KHIE 170352Z AUTO 00000KT 2 1/2SM -SN BR OVC035 M07/M08 A3034 RMK AO2
                 SLP297 P0000 T10721083 =
2018-01-16 22:45 METAR KHIE 170345Z AUTO 00000KT 2 1/2SM -SN BR OVC035 M07/M08 A3035 RMK AO2
                 P0000 T10671078 =
2018-01-16 22:10 METAR KHIE 170310Z AUTO 00000KT 3SM -SN BR OVC038 M07/M08 A3035 RMK AO2 P0000
                 T10671083 =
2018-01-16 21:52 METAR KHIE 170252Z AUTO 00000KT 2 1/2SM -SN BR OVC038 M07/M08 A3035 RMK AO2
                 SLP302 P0000 60000 T10721078 58006 =
2018-01-16 21:42 METAR KHIE 170242Z AUTO 00000KT 2 1/2SM -SN BR OVC040 M07/M08 A3035 RMK AO2
                 P0000 T10721083 =
2018-01-16 20:52 METAR KHIE 170152Z AUTO 00000KT 8SM -SN OVC060 M07/M08 A3036 RMK AO2 SNB11E23B51
                 SLP304 P0000 T10721083 =
2018-01-16 19:52 METAR KHIE 170052Z AUTO 00000KT 10SM SCT065 OVC085 M07/M08 A3036 RMK AO2
                 SNB2354E13 SLP307 P0000 T10721083 =

Support USWX by starting your Amazon purchase here.